sensor_id;sensor_type;location;lat;lon;timestamp;P1;durP1;ratioP1;P2;durP2;ratioP2
3726;SDS011;1879;45.876;12.300;2022-11-18T00:01:09;37.97;;;33.93;;
3726;SDS011;1879;45.876;12.300;2022-11-18T00:03:38;35.13;;;31.60;;
3726;SDS011;1879;45.876;12.300;2022-11-18T00:06:06;37.73;;;32.00;;
3726;SDS011;1879;45.876;12.300;2022-11-18T00:08:36;36.53;;;32.67;;
3726;SDS011;1879;45.876;12.300;2022-11-18T00:11:03;35.97;;;32.17;;
3726;SDS011;1879;45.876;12.300;2022-11-18T00:13:31;35.20;;;31.50;;
3726;SDS011;1879;45.876;12.300;2022-11-18T00:16:17;35.57;;;32.07;;
3726;SDS011;1879;45.876;12.300;2022-11-18T00:18:44;36.93;;;32.43;;
3726;SDS011;1879;45.876;12.300;2022-11-18T00:21:11;36.80;;;32.77;;
3726;SDS011;1879;45.876;12.300;2022-11-18T00:23:38;37.17;;;31.50;;
3726;SDS011;1879;45.876;12.300;2022-11-18T00:26:06;37.53;;;33.60;;
3726;SDS011;1879;45.876;12.300;2022-11-18T00:28:34;38.80;;;34.80;;
3726;SDS011;1879;45.876;12.300;2022-11-18T00:31:02;38.67;;;34.53;;
3726;SDS011;1879;45.876;12.300;2022-11-18T00:33:32;40.80;;;36.50;;
3726;SDS011;1879;45.876;12.300;2022-11-18T00:36:00;47.60;;;36.30;;
3726;SDS011;1879;45.876;12.300;2022-11-18T00:38:28;42.23;;;37.63;;
3726;SDS011;1879;45.876;12.300;2022-11-18T00:40:59;41.10;;;36.73;;
3726;SDS011;1879;45.876;12.300;2022-11-18T00:43:26;38.20;;;34.13;;
3726;SDS011;1879;45.876;12.300;2022-11-18T00:45:53;41.93;;;35.20;;
3726;SDS011;1879;45.876;12.300;2022-11-18T00:48:20;42.47;;;36.93;;
3726;SDS011;1879;45.876;12.300;2022-11-18T00:50:49;40.60;;;35.83;;
3726;SDS011;1879;45.876;12.300;2022-11-18T00:53:18;40.83;;;36.00;;
3726;SDS011;1879;45.876;12.300;2022-11-18T00:55:45;38.03;;;33.10;;
3726;SDS011;1879;45.876;12.300;2022-11-18T00:58:13;40.43;;;32.87;;
3726;SDS011;1879;45.876;12.300;2022-11-18T01:00:40;39.20;;;34.83;;
3726;SDS011;1879;45.876;12.300;2022-11-18T01:03:08;37.77;;;33.13;;
3726;SDS011;1879;45.876;12.300;2022-11-18T01:05:35;39.20;;;31.60;;
3726;SDS011;1879;45.876;12.300;2022-11-18T01:08:04;39.60;;;33.73;;
3726;SDS011;1879;45.876;12.300;2022-11-18T01:10:31;36.23;;;32.40;;
3726;SDS011;1879;45.876;12.300;2022-11-18T01:12:59;36.47;;;32.67;;
3726;SDS011;1879;45.876;12.300;2022-11-18T01:15:44;38.40;;;34.23;;
3726;SDS011;1879;45.876;12.300;2022-11-18T01:18:12;35.57;;;31.63;;
3726;SDS011;1879;45.876;12.300;2022-11-18T01:20:40;41.90;;;37.40;;
3726;SDS011;1879;45.876;12.300;2022-11-18T01:23:08;43.50;;;35.97;;
3726;SDS011;1879;45.876;12.300;2022-11-18T01:25:35;45.37;;;36.50;;
3726;SDS011;1879;45.876;12.300;2022-11-18T01:28:04;34.47;;;30.87;;
3726;SDS011;1879;45.876;12.300;2022-11-18T01:30:32;41.57;;;34.67;;
3726;SDS011;1879;45.876;12.300;2022-11-18T01:33:00;41.20;;;34.97;;
3726;SDS011;1879;45.876;12.300;2022-11-18T01:35:28;48.30;;;37.77;;
3726;SDS011;1879;45.876;12.300;2022-11-18T01:37:55;44.07;;;36.20;;
3726;SDS011;1879;45.876;12.300;2022-11-18T01:40:24;48.83;;;36.53;;
3726;SDS011;1879;45.876;12.300;2022-11-18T01:42:53;44.77;;;36.90;;
3726;SDS011;1879;45.876;12.300;2022-11-18T01:45:23;41.47;;;34.70;;
3726;SDS011;1879;45.876;12.300;2022-11-18T01:47:55;48.43;;;35.77;;
3726;SDS011;1879;45.876;12.300;2022-11-18T01:50:27;39.37;;;33.03;;
3726;SDS011;1879;45.876;12.300;2022-11-18T01:52:58;38.77;;;33.80;;
3726;SDS011;1879;45.876;12.300;2022-11-18T01:55:32;46.20;;;35.17;;
3726;SDS011;1879;45.876;12.300;2022-11-18T01:58:02;42.37;;;35.50;;
3726;SDS011;1879;45.876;12.300;2022-11-18T02:00:36;37.23;;;31.67;;
3726;SDS011;1879;45.876;12.300;2022-11-18T02:03:04;36.70;;;30.63;;
3726;SDS011;1879;45.876;12.300;2022-11-18T02:05:32;37.23;;;33.23;;
3726;SDS011;1879;45.876;12.300;2022-11-18T02:08:00;33.73;;;30.10;;
3726;SDS011;1879;45.876;12.300;2022-11-18T02:10:29;35.27;;;30.50;;
3726;SDS011;1879;45.876;12.300;2022-11-18T02:12:56;32.30;;;28.80;;
3726;SDS011;1879;45.876;12.300;2022-11-18T02:15:25;37.90;;;33.80;;
3726;SDS011;1879;45.876;12.300;2022-11-18T02:18:03;42.33;;;34.20;;
3726;SDS011;1879;45.876;12.300;2022-11-18T02:20:36;42.03;;;34.20;;
3726;SDS011;1879;45.876;12.300;2022-11-18T02:26:36;35.63;;;31.73;;
3726;SDS011;1879;45.876;12.300;2022-11-18T02:29:28;34.13;;;30.43;;
3726;SDS011;1879;45.876;12.300;2022-11-18T02:32:01;36.37;;;30.50;;
3726;SDS011;1879;45.876;12.300;2022-11-18T02:34:35;35.80;;;31.87;;
3726;SDS011;1879;45.876;12.300;2022-11-18T02:37:11;41.23;;;34.13;;
3726;SDS011;1879;45.876;12.300;2022-11-18T02:39:43;34.47;;;30.90;;
3726;SDS011;1879;45.876;12.300;2022-11-18T02:42:13;34.80;;;29.87;;
3726;SDS011;1879;45.876;12.300;2022-11-18T02:44:44;35.53;;;31.73;;
3726;SDS011;1879;45.876;12.300;2022-11-18T02:47:14;41.43;;;31.87;;
3726;SDS011;1879;45.876;12.300;2022-11-18T02:49:43;40.67;;;32.50;;
3726;SDS011;1879;45.876;12.300;2022-11-18T02:52:13;34.53;;;29.37;;
3726;SDS011;1879;45.876;12.300;2022-11-18T02:54:42;35.13;;;30.37;;
3726;SDS011;1879;45.876;12.300;2022-11-18T02:57:12;35.83;;;29.87;;
3726;SDS011;1879;45.876;12.300;2022-11-18T02:59:40;38.27;;;31.53;;
3726;SDS011;1879;45.876;12.300;2022-11-18T03:02:09;40.63;;;30.37;;
3726;SDS011;1879;45.876;12.300;2022-11-18T03:04:41;36.60;;;32.20;;
3726;SDS011;1879;45.876;12.300;2022-11-18T03:07:10;65.17;;;37.63;;
3726;SDS011;1879;45.876;12.300;2022-11-18T03:09:43;44.27;;;34.03;;
3726;SDS011;1879;45.876;12.300;2022-11-18T03:12:14;38.30;;;32.83;;
3726;SDS011;1879;45.876;12.300;2022-11-18T03:14:46;41.13;;;34.67;;
3726;SDS011;1879;45.876;12.300;2022-11-18T03:17:28;39.80;;;32.20;;
3726;SDS011;1879;45.876;12.300;2022-11-18T03:20:08;44.37;;;35.97;;
3726;SDS011;1879;45.876;12.300;2022-11-18T03:22:41;46.80;;;35.57;;
3726;SDS011;1879;45.876;12.300;2022-11-18T03:25:13;41.50;;;33.83;;
3726;SDS011;1879;45.876;12.300;2022-11-18T03:27:47;38.60;;;32.67;;
3726;SDS011;1879;45.876;12.300;2022-11-18T03:30:19;37.10;;;30.77;;
3726;SDS011;1879;45.876;12.300;2022-11-18T03:32:50;39.00;;;33.10;;
3726;SDS011;1879;45.876;12.300;2022-11-18T03:35:23;39.17;;;35.07;;
3726;SDS011;1879;45.876;12.300;2022-11-18T03:37:55;40.57;;;34.53;;
3726;SDS011;1879;45.876;12.300;2022-11-18T03:40:29;41.00;;;32.00;;
3726;SDS011;1879;45.876;12.300;2022-11-18T03:42:59;39.40;;;32.50;;
3726;SDS011;1879;45.876;12.300;2022-11-18T03:45:30;43.40;;;37.23;;
3726;SDS011;1879;45.876;12.300;2022-11-18T03:48:04;37.53;;;33.43;;
3726;SDS011;1879;45.876;12.300;2022-11-18T03:50:37;41.20;;;33.37;;
3726;SDS011;1879;45.876;12.300;2022-11-18T03:53:08;40.57;;;35.20;;
3726;SDS011;1879;45.876;12.300;2022-11-18T03:55:37;42.23;;;30.57;;
3726;SDS011;1879;45.876;12.300;2022-11-18T03:58:06;46.80;;;35.87;;
3726;SDS011;1879;45.876;12.300;2022-11-18T04:00:39;47.00;;;38.60;;
3726;SDS011;1879;45.876;12.300;2022-11-18T04:03:10;45.53;;;38.63;;
3726;SDS011;1879;45.876;12.300;2022-11-18T04:05:39;39.93;;;34.20;;
3726;SDS011;1879;45.876;12.300;2022-11-18T04:08:08;41.93;;;36.20;;
3726;SDS011;1879;45.876;12.300;2022-11-18T04:10:40;46.13;;;36.70;;
3726;SDS011;1879;45.876;12.300;2022-11-18T04:13:13;43.67;;;37.77;;
3726;SDS011;1879;45.876;12.300;2022-11-18T04:15:43;46.97;;;39.00;;
3726;SDS011;1879;45.876;12.300;2022-11-18T04:18:12;46.67;;;38.33;;
3726;SDS011;1879;45.876;12.300;2022-11-18T04:20:39;44.43;;;37.07;;
3726;SDS011;1879;45.876;12.300;2022-11-18T04:23:06;46.37;;;37.63;;
3726;SDS011;1879;45.876;12.300;2022-11-18T04:25:33;47.03;;;37.70;;
3726;SDS011;1879;45.876;12.300;2022-11-18T04:28:01;46.17;;;38.03;;
3726;SDS011;1879;45.876;12.300;2022-11-18T04:30:28;44.37;;;37.20;;
3726;SDS011;1879;45.876;12.300;2022-11-18T04:32:55;40.83;;;35.63;;
3726;SDS011;1879;45.876;12.300;2022-11-18T04:35:24;40.03;;;35.10;;
3726;SDS011;1879;45.876;12.300;2022-11-18T04:37:52;46.13;;;36.83;;
3726;SDS011;1879;45.876;12.300;2022-11-18T04:40:19;41.03;;;33.30;;
3726;SDS011;1879;45.876;12.300;2022-11-18T04:42:46;40.33;;;34.17;;
3726;SDS011;1879;45.876;12.300;2022-11-18T04:45:13;37.77;;;32.20;;
3726;SDS011;1879;45.876;12.300;2022-11-18T04:47:40;37.50;;;33.10;;
3726;SDS011;1879;45.876;12.300;2022-11-18T04:50:07;38.03;;;32.67;;
3726;SDS011;1879;45.876;12.300;2022-11-18T04:52:36;35.77;;;31.00;;
3726;SDS011;1879;45.876;12.300;2022-11-18T04:55:03;36.30;;;32.30;;
3726;SDS011;1879;45.876;12.300;2022-11-18T04:57:31;38.97;;;32.63;;
3726;SDS011;1879;45.876;12.300;2022-11-18T04:59:58;37.77;;;32.30;;
3726;SDS011;1879;45.876;12.300;2022-11-18T05:02:25;36.10;;;32.00;;
3726;SDS011;1879;45.876;12.300;2022-11-18T05:04:52;34.67;;;30.93;;
3726;SDS011;1879;45.876;12.300;2022-11-18T05:07:19;33.83;;;30.13;;
3726;SDS011;1879;45.876;12.300;2022-11-18T05:09:47;40.60;;;32.90;;
3726;SDS011;1879;45.876;12.300;2022-11-18T05:12:14;36.23;;;30.97;;
3726;SDS011;1879;45.876;12.300;2022-11-18T05:14:59;39.30;;;33.43;;
3726;SDS011;1879;45.876;12.300;2022-11-18T05:17:26;37.90;;;33.80;;
3726;SDS011;1879;45.876;12.300;2022-11-18T05:19:53;38.83;;;34.57;;
3726;SDS011;1879;45.876;12.300;2022-11-18T05:22:20;38.20;;;32.00;;
3726;SDS011;1879;45.876;12.300;2022-11-18T05:24:49;37.17;;;32.77;;
3726;SDS011;1879;45.876;12.300;2022-11-18T05:27:16;35.43;;;31.63;;
3726;SDS011;1879;45.876;12.300;2022-11-18T05:29:43;43.60;;;39.00;;
3726;SDS011;1879;45.876;12.300;2022-11-18T05:32:10;39.73;;;33.30;;
3726;SDS011;1879;45.876;12.300;2022-11-18T05:34:39;37.30;;;33.27;;
3726;SDS011;1879;45.876;12.300;2022-11-18T05:37:07;37.30;;;33.27;;
3726;SDS011;1879;45.876;12.300;2022-11-18T05:39:34;41.37;;;32.23;;
3726;SDS011;1879;45.876;12.300;2022-11-18T05:42:03;35.40;;;30.97;;
3726;SDS011;1879;45.876;12.300;2022-11-18T05:44:48;34.53;;;30.80;;
3726;SDS011;1879;45.876;12.300;2022-11-18T05:47:15;37.33;;;32.57;;
3726;SDS011;1879;45.876;12.300;2022-11-18T05:49:42;37.20;;;33.27;;
3726;SDS011;1879;45.876;12.300;2022-11-18T05:52:09;35.20;;;31.60;;
3726;SDS011;1879;45.876;12.300;2022-11-18T05:54:37;34.30;;;30.70;;
3726;SDS011;1879;45.876;12.300;2022-11-18T05:57:09;31.70;;;28.40;;
3726;SDS011;1879;45.876;12.300;2022-11-18T05:59:35;32.73;;;29.23;;
3726;SDS011;1879;45.876;12.300;2022-11-18T06:02:03;33.53;;;30.03;;
3726;SDS011;1879;45.876;12.300;2022-11-18T06:04:33;32.87;;;29.30;;
3726;SDS011;1879;45.876;12.300;2022-11-18T06:07:06;31.60;;;28.30;;
3726;SDS011;1879;45.876;12.300;2022-11-18T06:09:37;30.90;;;27.70;;
3726;SDS011;1879;45.876;12.300;2022-11-18T06:12:09;32.87;;;28.27;;
3726;SDS011;1879;45.876;12.300;2022-11-18T06:14:42;33.63;;;27.40;;
3726;SDS011;1879;45.876;12.300;2022-11-18T06:17:14;31.10;;;27.13;;
3726;SDS011;1879;45.876;12.300;2022-11-18T06:19:43;30.63;;;27.40;;
3726;SDS011;1879;45.876;12.300;2022-11-18T06:22:11;30.17;;;27.10;;
3726;SDS011;1879;45.876;12.300;2022-11-18T06:24:38;28.60;;;25.43;;
3726;SDS011;1879;45.876;12.300;2022-11-18T06:27:07;31.40;;;28.30;;
3726;SDS011;1879;45.876;12.300;2022-11-18T06:29:35;32.07;;;28.63;;
3726;SDS011;1879;45.876;12.300;2022-11-18T06:32:02;31.87;;;28.60;;
3726;SDS011;1879;45.876;12.300;2022-11-18T06:34:29;29.97;;;26.80;;
3726;SDS011;1879;45.876;12.300;2022-11-18T06:36:56;28.40;;;25.50;;
3726;SDS011;1879;45.876;12.300;2022-11-18T06:39:23;27.10;;;24.27;;
3726;SDS011;1879;45.876;12.300;2022-11-18T06:41:53;27.67;;;24.70;;
3726;SDS011;1879;45.876;12.300;2022-11-18T06:44:21;29.63;;;26.67;;
3726;SDS011;1879;45.876;12.300;2022-11-18T06:46:47;29.63;;;26.20;;
3726;SDS011;1879;45.876;12.300;2022-11-18T06:49:23;27.77;;;24.97;;
3726;SDS011;1879;45.876;12.300;2022-11-18T06:51:51;28.13;;;24.20;;
3726;SDS011;1879;45.876;12.300;2022-11-18T06:54:19;27.13;;;24.43;;
3726;SDS011;1879;45.876;12.300;2022-11-18T06:56:46;27.53;;;24.73;;
3726;SDS011;1879;45.876;12.300;2022-11-18T06:59:13;29.30;;;25.77;;
3726;SDS011;1879;45.876;12.300;2022-11-18T07:01:47;28.37;;;25.53;;
3726;SDS011;1879;45.876;12.300;2022-11-18T07:04:14;29.30;;;26.20;;
3726;SDS011;1879;45.876;12.300;2022-11-18T07:06:41;29.13;;;26.00;;
3726;SDS011;1879;45.876;12.300;2022-11-18T07:09:08;35.47;;;31.67;;
3726;SDS011;1879;45.876;12.300;2022-11-18T07:11:35;32.83;;;29.33;;
3726;SDS011;1879;45.876;12.300;2022-11-18T07:14:05;35.53;;;30.10;;
3726;SDS011;1879;45.876;12.300;2022-11-18T07:16:33;33.40;;;29.90;;
3726;SDS011;1879;45.876;12.300;2022-11-18T07:19:06;30.43;;;26.43;;
3726;SDS011;1879;45.876;12.300;2022-11-18T07:21:34;29.00;;;26.10;;
3726;SDS011;1879;45.876;12.300;2022-11-18T07:24:03;32.80;;;26.90;;
3726;SDS011;1879;45.876;12.300;2022-11-18T07:26:31;32.17;;;28.33;;
3726;SDS011;1879;45.876;12.300;2022-11-18T07:28:58;30.73;;;27.53;;
3726;SDS011;1879;45.876;12.300;2022-11-18T07:31:25;28.27;;;25.37;;
3726;SDS011;1879;45.876;12.300;2022-11-18T07:33:52;24.73;;;22.10;;
3726;SDS011;1879;45.876;12.300;2022-11-18T07:36:20;26.07;;;23.47;;
3726;SDS011;1879;45.876;12.300;2022-11-18T07:38:49;22.57;;;20.17;;
3726;SDS011;1879;45.876;12.300;2022-11-18T07:41:17;22.10;;;19.83;;
3726;SDS011;1879;45.876;12.300;2022-11-18T07:43:45;23.33;;;20.93;;
3726;SDS011;1879;45.876;12.300;2022-11-18T07:46:15;21.60;;;19.30;;
3726;SDS011;1879;45.876;12.300;2022-11-18T07:48:44;29.67;;;26.60;;
3726;SDS011;1879;45.876;12.300;2022-11-18T07:51:13;21.70;;;19.53;;
3726;SDS011;1879;45.876;12.300;2022-11-18T07:53:43;22.57;;;20.30;;
3726;SDS011;1879;45.876;12.300;2022-11-18T07:56:10;25.30;;;21.93;;
3726;SDS011;1879;45.876;12.300;2022-11-18T07:58:38;23.90;;;21.70;;
3726;SDS011;1879;45.876;12.300;2022-11-18T08:01:06;22.10;;;19.90;;
3726;SDS011;1879;45.876;12.300;2022-11-18T08:03:34;24.60;;;22.13;;
3726;SDS011;1879;45.876;12.300;2022-11-18T08:06:02;21.13;;;19.03;;
3726;SDS011;1879;45.876;12.300;2022-11-18T08:08:29;24.43;;;22.03;;
3726;SDS011;1879;45.876;12.300;2022-11-18T08:10:58;23.93;;;21.40;;
3726;SDS011;1879;45.876;12.300;2022-11-18T08:13:30;25.80;;;23.20;;
3726;SDS011;1879;45.876;12.300;2022-11-18T08:15:57;24.83;;;22.53;;
3726;SDS011;1879;45.876;12.300;2022-11-18T08:18:24;24.83;;;22.37;;
3726;SDS011;1879;45.876;12.300;2022-11-18T08:20:53;26.57;;;23.77;;
3726;SDS011;1879;45.876;12.300;2022-11-18T08:23:20;25.70;;;23.03;;
3726;SDS011;1879;45.876;12.300;2022-11-18T08:25:47;24.47;;;21.83;;
3726;SDS011;1879;45.876;12.300;2022-11-18T08:28:16;23.70;;;21.23;;
3726;SDS011;1879;45.876;12.300;2022-11-18T08:30:43;24.27;;;21.70;;
3726;SDS011;1879;45.876;12.300;2022-11-18T08:33:09;25.63;;;23.03;;
3726;SDS011;1879;45.876;12.300;2022-11-18T08:35:36;27.90;;;23.53;;
3726;SDS011;1879;45.876;12.300;2022-11-18T08:38:03;25.30;;;22.80;;
3726;SDS011;1879;45.876;12.300;2022-11-18T08:40:31;25.20;;;22.60;;
3726;SDS011;1879;45.876;12.300;2022-11-18T08:42:59;23.17;;;20.50;;
3726;SDS011;1879;45.876;12.300;2022-11-18T08:45:27;24.07;;;21.83;;
3726;SDS011;1879;45.876;12.300;2022-11-18T08:47:54;22.13;;;19.93;;
3726;SDS011;1879;45.876;12.300;2022-11-18T08:50:21;21.03;;;19.00;;
3726;SDS011;1879;45.876;12.300;2022-11-18T08:52:48;21.73;;;19.63;;
3726;SDS011;1879;45.876;12.300;2022-11-18T08:55:15;20.33;;;18.00;;
3726;SDS011;1879;45.876;12.300;2022-11-18T08:57:42;23.37;;;19.07;;
3726;SDS011;1879;45.876;12.300;2022-11-18T09:00:10;20.77;;;18.63;;
3726;SDS011;1879;45.876;12.300;2022-11-18T09:02:39;19.70;;;17.53;;
3726;SDS011;1879;45.876;12.300;2022-11-18T09:05:06;19.87;;;17.87;;
3726;SDS011;1879;45.876;12.300;2022-11-18T09:07:34;16.07;;;14.57;;
3726;SDS011;1879;45.876;12.300;2022-11-18T09:10:01;15.93;;;14.10;;
3726;SDS011;1879;45.876;12.300;2022-11-18T09:12:28;16.40;;;14.70;;
3726;SDS011;1879;45.876;12.300;2022-11-18T09:14:55;14.73;;;13.13;;
3726;SDS011;1879;45.876;12.300;2022-11-18T09:17:22;14.77;;;13.47;;
3726;SDS011;1879;45.876;12.300;2022-11-18T09:19:50;13.87;;;12.57;;
3726;SDS011;1879;45.876;12.300;2022-11-18T09:22:17;16.57;;;13.93;;
3726;SDS011;1879;45.876;12.300;2022-11-18T09:24:44;14.17;;;13.00;;
3726;SDS011;1879;45.876;12.300;2022-11-18T09:27:11;13.87;;;12.63;;
3726;SDS011;1879;45.876;12.300;2022-11-18T09:29:38;14.67;;;13.37;;
3726;SDS011;1879;45.876;12.300;2022-11-18T09:32:05;15.40;;;13.93;;
3726;SDS011;1879;45.876;12.300;2022-11-18T09:34:32;12.77;;;11.70;;
3726;SDS011;1879;45.876;12.300;2022-11-18T09:37:03;11.30;;;10.20;;
3726;SDS011;1879;45.876;12.300;2022-11-18T09:39:30;9.63;;;8.73;;
3726;SDS011;1879;45.876;12.300;2022-11-18T09:42:04;10.37;;;9.53;;
3726;SDS011;1879;45.876;12.300;2022-11-18T09:44:40;9.33;;;8.53;;
3726;SDS011;1879;45.876;12.300;2022-11-18T09:47:21;9.53;;;8.73;;
3726;SDS011;1879;45.876;12.300;2022-11-18T09:49:53;5.80;;;5.20;;
3726;SDS011;1879;45.876;12.300;2022-11-18T09:52:26;7.13;;;5.30;;
3726;SDS011;1879;45.876;12.300;2022-11-18T09:54:55;4.03;;;3.73;;
3726;SDS011;1879;45.876;12.300;2022-11-18T09:57:24;2.90;;;2.60;;
3726;SDS011;1879;45.876;12.300;2022-11-18T09:59:54;2.40;;;2.10;;
3726;SDS011;1879;45.876;12.300;2022-11-18T10:05:24;2.23;;;1.90;;
3726;SDS011;1879;45.876;12.300;2022-11-18T10:08:00;3.10;;;2.80;;
3726;SDS011;1879;45.876;12.300;2022-11-18T10:10:35;3.20;;;2.77;;
3726;SDS011;1879;45.876;12.300;2022-11-18T10:13:12;2.43;;;2.23;;
3726;SDS011;1879;45.876;12.300;2022-11-18T10:15:52;2.03;;;1.83;;
3726;SDS011;1879;45.876;12.300;2022-11-18T10:18:26;2.10;;;1.90;;
3726;SDS011;1879;45.876;12.300;2022-11-18T10:20:59;2.37;;;1.97;;
3726;SDS011;1879;45.876;12.300;2022-11-18T10:23:33;3.43;;;2.93;;
3726;SDS011;1879;45.876;12.300;2022-11-18T10:26:04;3.10;;;2.20;;
3726;SDS011;1879;45.876;12.300;2022-11-18T10:28:31;1.80;;;1.70;;
3726;SDS011;1879;45.876;12.300;2022-11-18T10:31:07;2.10;;;1.90;;
3726;SDS011;1879;45.876;12.300;2022-11-18T10:33:35;1.97;;;1.60;;
3726;SDS011;1879;45.876;12.300;2022-11-18T10:39:07;3.13;;;1.67;;
3726;SDS011;1879;45.876;12.300;2022-11-18T10:41:41;2.77;;;2.03;;
3726;SDS011;1879;45.876;12.300;2022-11-18T10:44:28;2.20;;;2.00;;
3726;SDS011;1879;45.876;12.300;2022-11-18T10:49:47;2.90;;;1.43;;
3726;SDS011;1879;45.876;12.300;2022-11-18T10:52:14;2.70;;;1.60;;
3726;SDS011;1879;45.876;12.300;2022-11-18T10:54:42;1.40;;;1.27;;
3726;SDS011;1879;45.876;12.300;2022-11-18T10:57:13;2.03;;;1.83;;
3726;SDS011;1879;45.876;12.300;2022-11-18T10:59:45;3.40;;;1.60;;
3726;SDS011;1879;45.876;12.300;2022-11-18T11:02:16;2.80;;;1.50;;
3726;SDS011;1879;45.876;12.300;2022-11-18T11:04:45;1.70;;;1.60;;
3726;SDS011;1879;45.876;12.300;2022-11-18T11:07:14;2.90;;;1.90;;
3726;SDS011;1879;45.876;12.300;2022-11-18T11:09:44;1.90;;;1.70;;
3726;SDS011;1879;45.876;12.300;2022-11-18T11:12:25;2.60;;;2.30;;
3726;SDS011;1879;45.876;12.300;2022-11-18T11:14:54;3.50;;;3.30;;
3726;SDS011;1879;45.876;12.300;2022-11-18T11:17:26;3.40;;;3.13;;
3726;SDS011;1879;45.876;12.300;2022-11-18T11:19:58;4.40;;;3.50;;
3726;SDS011;1879;45.876;12.300;2022-11-18T11:22:29;3.10;;;2.90;;
3726;SDS011;1879;45.876;12.300;2022-11-18T11:24:58;2.83;;;2.63;;
3726;SDS011;1879;45.876;12.300;2022-11-18T11:27:34;3.30;;;3.10;;
3726;SDS011;1879;45.876;12.300;2022-11-18T11:30:15;3.00;;;2.80;;
3726;SDS011;1879;45.876;12.300;2022-11-18T11:35:45;3.57;;;3.27;;
3726;SDS011;1879;45.876;12.300;2022-11-18T11:38:18;3.50;;;3.20;;
3726;SDS011;1879;45.876;12.300;2022-11-18T11:41:01;3.57;;;3.27;;
3726;SDS011;1879;45.876;12.300;2022-11-18T11:43:37;3.10;;;2.87;;
3726;SDS011;1879;45.876;12.300;2022-11-18T11:46:19;3.13;;;2.93;;
3726;SDS011;1879;45.876;12.300;2022-11-18T11:48:57;3.20;;;3.00;;
3726;SDS011;1879;45.876;12.300;2022-11-18T11:51:33;2.90;;;2.70;;
3726;SDS011;1879;45.876;12.300;2022-11-18T11:54:11;4.30;;;4.00;;
3726;SDS011;1879;45.876;12.300;2022-11-18T11:56:50;2.53;;;2.37;;
3726;SDS011;1879;45.876;12.300;2022-11-18T11:59:27;3.00;;;2.70;;
3726;SDS011;1879;45.876;12.300;2022-11-18T12:02:00;3.57;;;3.27;;
3726;SDS011;1879;45.876;12.300;2022-11-18T12:04:49;3.10;;;2.90;;
3726;SDS011;1879;45.876;12.300;2022-11-18T12:07:17;3.50;;;3.30;;
3726;SDS011;1879;45.876;12.300;2022-11-18T12:09:50;3.40;;;3.20;;
3726;SDS011;1879;45.876;12.300;2022-11-18T12:12:37;4.33;;;3.27;;
3726;SDS011;1879;45.876;12.300;2022-11-18T12:15:16;3.17;;;2.87;;
3726;SDS011;1879;45.876;12.300;2022-11-18T12:17:53;3.63;;;3.33;;
3726;SDS011;1879;45.876;12.300;2022-11-18T12:20:35;3.10;;;2.90;;
3726;SDS011;1879;45.876;12.300;2022-11-18T12:23:14;3.03;;;2.73;;
3726;SDS011;1879;45.876;12.300;2022-11-18T12:25:49;3.37;;;3.17;;
3726;SDS011;1879;45.876;12.300;2022-11-18T12:28:26;4.13;;;3.87;;
3726;SDS011;1879;45.876;12.300;2022-11-18T12:34:01;4.63;;;4.33;;
3726;SDS011;1879;45.876;12.300;2022-11-18T12:36:32;6.13;;;5.57;;
3726;SDS011;1879;45.876;12.300;2022-11-18T12:42:00;9.37;;;7.80;;
3726;SDS011;1879;45.876;12.300;2022-11-18T12:44:46;9.57;;;8.77;;
3726;SDS011;1879;45.876;12.300;2022-11-18T12:47:15;13.30;;;12.20;;
3726;SDS011;1879;45.876;12.300;2022-11-18T12:50:07;13.90;;;12.67;;
3726;SDS011;1879;45.876;12.300;2022-11-18T12:52:48;12.90;;;11.90;;
3726;SDS011;1879;45.876;12.300;2022-11-18T12:58:02;14.07;;;9.93;;
3726;SDS011;1879;45.876;12.300;2022-11-18T13:00:46;13.63;;;12.33;;
3726;SDS011;1879;45.876;12.300;2022-11-18T13:03:22;12.73;;;11.67;;
3726;SDS011;1879;45.876;12.300;2022-11-18T13:05:57;14.70;;;13.33;;
3726;SDS011;1879;45.876;12.300;2022-11-18T13:08:39;14.93;;;13.53;;
3726;SDS011;1879;45.876;12.300;2022-11-18T13:11:08;11.13;;;10.13;;
3726;SDS011;1879;45.876;12.300;2022-11-18T13:13:57;15.43;;;13.93;;
3726;SDS011;1879;45.876;12.300;2022-11-18T13:16:44;14.60;;;13.20;;
3726;SDS011;1879;45.876;12.300;2022-11-18T13:19:37;15.70;;;14.20;;
3726;SDS011;1879;45.876;12.300;2022-11-18T13:22:12;18.93;;;17.13;;
3726;SDS011;1879;45.876;12.300;2022-11-18T13:25:00;21.80;;;17.40;;
3726;SDS011;1879;45.876;12.300;2022-11-18T13:27:30;17.20;;;15.80;;
3726;SDS011;1879;45.876;12.300;2022-11-18T13:30:10;16.07;;;14.67;;
3726;SDS011;1879;45.876;12.300;2022-11-18T13:32:42;13.03;;;11.93;;
3726;SDS011;1879;45.876;12.300;2022-11-18T13:35:12;12.53;;;11.53;;
3726;SDS011;1879;45.876;12.300;2022-11-18T13:37:48;12.00;;;11.00;;
3726;SDS011;1879;45.876;12.300;2022-11-18T13:40:20;13.87;;;12.77;;
3726;SDS011;1879;45.876;12.300;2022-11-18T13:42:47;14.37;;;13.27;;
3726;SDS011;1879;45.876;12.300;2022-11-18T13:45:15;14.20;;;13.00;;
3726;SDS011;1879;45.876;12.300;2022-11-18T13:47:44;14.80;;;13.60;;
3726;SDS011;1879;45.876;12.300;2022-11-18T13:50:16;16.23;;;14.87;;
3726;SDS011;1879;45.876;12.300;2022-11-18T13:52:47;17.07;;;15.63;;
3726;SDS011;1879;45.876;12.300;2022-11-18T13:55:23;14.93;;;13.73;;
3726;SDS011;1879;45.876;12.300;2022-11-18T13:57:55;15.30;;;14.00;;
3726;SDS011;1879;45.876;12.300;2022-11-18T14:00:27;15.93;;;14.47;;
3726;SDS011;1879;45.876;12.300;2022-11-18T14:02:58;15.97;;;14.50;;
3726;SDS011;1879;45.876;12.300;2022-11-18T14:05:28;16.33;;;14.93;;
3726;SDS011;1879;45.876;12.300;2022-11-18T14:07:56;14.33;;;12.93;;
3726;SDS011;1879;45.876;12.300;2022-11-18T14:10:30;19.30;;;17.50;;
3726;SDS011;1879;45.876;12.300;2022-11-18T14:13:03;17.90;;;16.30;;
3726;SDS011;1879;45.876;12.300;2022-11-18T14:15:43;17.77;;;16.10;;
3726;SDS011;1879;45.876;12.300;2022-11-18T14:18:16;19.53;;;17.67;;
3726;SDS011;1879;45.876;12.300;2022-11-18T14:20:50;20.13;;;17.87;;
3726;SDS011;1879;45.876;12.300;2022-11-18T14:23:18;18.77;;;17.07;;
3726;SDS011;1879;45.876;12.300;2022-11-18T14:25:52;18.97;;;17.03;;
3726;SDS011;1879;45.876;12.300;2022-11-18T14:28:21;16.53;;;14.87;;
3726;SDS011;1879;45.876;12.300;2022-11-18T14:30:57;19.57;;;17.60;;
3726;SDS011;1879;45.876;12.300;2022-11-18T14:33:27;20.47;;;18.40;;
3726;SDS011;1879;45.876;12.300;2022-11-18T14:35:56;21.20;;;17.90;;
3726;SDS011;1879;45.876;12.300;2022-11-18T14:38:27;22.70;;;19.30;;
3726;SDS011;1879;45.876;12.300;2022-11-18T14:41:07;19.80;;;17.80;;
3726;SDS011;1879;45.876;12.300;2022-11-18T14:43:35;20.30;;;18.20;;
3726;SDS011;1879;45.876;12.300;2022-11-18T14:46:03;21.17;;;18.97;;
3726;SDS011;1879;45.876;12.300;2022-11-18T14:48:34;19.53;;;17.50;;
3726;SDS011;1879;45.876;12.300;2022-11-18T14:51:01;18.77;;;16.87;;
3726;SDS011;1879;45.876;12.300;2022-11-18T14:53:28;20.80;;;17.80;;
3726;SDS011;1879;45.876;12.300;2022-11-18T14:55:55;20.20;;;17.70;;
3726;SDS011;1879;45.876;12.300;2022-11-18T14:58:25;20.97;;;18.77;;
3726;SDS011;1879;45.876;12.300;2022-11-18T15:00:52;22.80;;;19.90;;
3726;SDS011;1879;45.876;12.300;2022-11-18T15:03:19;21.47;;;19.37;;
3726;SDS011;1879;45.876;12.300;2022-11-18T15:05:47;23.03;;;20.67;;
3726;SDS011;1879;45.876;12.300;2022-11-18T15:08:14;23.17;;;20.80;;
3726;SDS011;1879;45.876;12.300;2022-11-18T15:10:41;27.90;;;24.90;;
3726;SDS011;1879;45.876;12.300;2022-11-18T15:13:08;28.53;;;25.53;;
3726;SDS011;1879;45.876;12.300;2022-11-18T15:15:35;38.93;;;34.80;;
3726;SDS011;1879;45.876;12.300;2022-11-18T15:18:02;29.60;;;26.43;;
3726;SDS011;1879;45.876;12.300;2022-11-18T15:20:29;28.90;;;25.97;;
3726;SDS011;1879;45.876;12.300;2022-11-18T15:22:58;34.40;;;30.20;;